sensor_id;sensor_type;location;lat;lon;timestamp;P1;durP1;ratioP1;P2;durP2;ratioP2
72301;SDS011;60235;52.234;5.186;2022-10-16T00:01:23;7.28;;;1.60;;
72301;SDS011;60235;52.234;5.186;2022-10-16T00:03:50;5.72;;;1.35;;
72301;SDS011;60235;52.234;5.186;2022-10-16T00:06:17;8.27;;;1.60;;
72301;SDS011;60235;52.234;5.186;2022-10-16T00:08:44;7.55;;;2.13;;
72301;SDS011;60235;52.234;5.186;2022-10-16T00:11:11;8.75;;;1.42;;
72301;SDS011;60235;52.234;5.186;2022-10-16T00:13:38;5.72;;;1.48;;
72301;SDS011;60235;52.234;5.186;2022-10-16T00:16:05;6.18;;;1.38;;
72301;SDS011;60235;52.234;5.186;2022-10-16T00:18:31;11.52;;;1.80;;
72301;SDS011;60235;52.234;5.186;2022-10-16T00:21:08;4.80;;;1.40;;
72301;SDS011;60235;52.234;5.186;2022-10-16T00:23:34;4.57;;;1.27;;
72301;SDS011;60235;52.234;5.186;2022-10-16T00:26:02;4.53;;;1.15;;
72301;SDS011;60235;52.234;5.186;2022-10-16T00:28:28;6.30;;;1.42;;
72301;SDS011;60235;52.234;5.186;2022-10-16T00:30:54;5.60;;;1.40;;
72301;SDS011;60235;52.234;5.186;2022-10-16T00:33:21;6.13;;;1.55;;
72301;SDS011;60235;52.234;5.186;2022-10-16T00:35:47;5.85;;;1.60;;
72301;SDS011;60235;52.234;5.186;2022-10-16T00:38:13;4.57;;;1.52;;
72301;SDS011;60235;52.234;5.186;2022-10-16T00:40:39;6.47;;;1.52;;
72301;SDS011;60235;52.234;5.186;2022-10-16T00:43:12;6.60;;;1.70;;
72301;SDS011;60235;52.234;5.186;2022-10-16T00:45:39;5.30;;;1.48;;
72301;SDS011;60235;52.234;5.186;2022-10-16T00:48:06;6.07;;;1.60;;
72301;SDS011;60235;52.234;5.186;2022-10-16T00:50:35;7.00;;;1.63;;
72301;SDS011;60235;52.234;5.186;2022-10-16T00:53:02;5.15;;;1.60;;
72301;SDS011;60235;52.234;5.186;2022-10-16T00:55:28;4.13;;;1.17;;
72301;SDS011;60235;52.234;5.186;2022-10-16T00:57:55;7.38;;;1.45;;
72301;SDS011;60235;52.234;5.186;2022-10-16T01:00:22;6.00;;;1.50;;
72301;SDS011;60235;52.234;5.186;2022-10-16T01:02:55;7.32;;;1.52;;
72301;SDS011;60235;52.234;5.186;2022-10-16T01:05:33;8.48;;;1.85;;
72301;SDS011;60235;52.234;5.186;2022-10-16T01:20:33;6.07;;;1.30;;
72301;SDS011;60235;52.234;5.186;2022-10-16T01:28:15;4.47;;;1.42;;
72301;SDS011;60235;52.234;5.186;2022-10-16T01:30:42;8.60;;;1.70;;
72301;SDS011;60235;52.234;5.186;2022-10-16T01:33:22;4.80;;;1.63;;
72301;SDS011;60235;52.234;5.186;2022-10-16T01:35:53;5.07;;;1.50;;
72301;SDS011;60235;52.234;5.186;2022-10-16T01:38:30;6.95;;;1.60;;
72301;SDS011;60235;52.234;5.186;2022-10-16T01:40:59;6.80;;;1.70;;
72301;SDS011;60235;52.234;5.186;2022-10-16T01:43:31;8.98;;;1.70;;
72301;SDS011;60235;52.234;5.186;2022-10-16T01:45:59;7.07;;;1.58;;
72301;SDS011;60235;52.234;5.186;2022-10-16T01:48:26;6.47;;;1.63;;
72301;SDS011;60235;52.234;5.186;2022-10-16T01:50:54;6.60;;;1.52;;
72301;SDS011;60235;52.234;5.186;2022-10-16T01:53:21;7.25;;;1.90;;
72301;SDS011;60235;52.234;5.186;2022-10-16T01:55:47;4.80;;;1.67;;
72301;SDS011;60235;52.234;5.186;2022-10-16T01:58:15;8.35;;;2.70;;
72301;SDS011;60235;52.234;5.186;2022-10-16T02:00:42;9.15;;;1.67;;
72301;SDS011;60235;52.234;5.186;2022-10-16T02:03:09;7.13;;;1.67;;
72301;SDS011;60235;52.234;5.186;2022-10-16T02:05:38;4.40;;;1.70;;
72301;SDS011;60235;52.234;5.186;2022-10-16T02:08:06;6.13;;;1.60;;
72301;SDS011;60235;52.234;5.186;2022-10-16T02:10:32;6.63;;;1.70;;
72301;SDS011;60235;52.234;5.186;2022-10-16T02:13:12;6.05;;;1.65;;
72301;SDS011;60235;52.234;5.186;2022-10-16T02:15:39;6.60;;;1.45;;
72301;SDS011;60235;52.234;5.186;2022-10-16T02:18:05;6.88;;;1.70;;
72301;SDS011;60235;52.234;5.186;2022-10-16T02:20:33;6.50;;;1.70;;
72301;SDS011;60235;52.234;5.186;2022-10-16T02:23:00;5.60;;;1.80;;
72301;SDS011;60235;52.234;5.186;2022-10-16T02:25:27;7.40;;;2.28;;
72301;SDS011;60235;52.234;5.186;2022-10-16T02:28:00;8.85;;;1.95;;
72301;SDS011;60235;52.234;5.186;2022-10-16T02:30:32;6.22;;;1.63;;
72301;SDS011;60235;52.234;5.186;2022-10-16T02:32:59;8.82;;;2.03;;
72301;SDS011;60235;52.234;5.186;2022-10-16T02:35:26;8.70;;;2.00;;
72301;SDS011;60235;52.234;5.186;2022-10-16T02:37:53;5.90;;;1.65;;
72301;SDS011;60235;52.234;5.186;2022-10-16T02:40:20;4.95;;;1.90;;
72301;SDS011;60235;52.234;5.186;2022-10-16T02:42:49;7.95;;;2.20;;
72301;SDS011;60235;52.234;5.186;2022-10-16T02:45:15;7.03;;;1.95;;
72301;SDS011;60235;52.234;5.186;2022-10-16T02:47:41;7.65;;;2.03;;
72301;SDS011;60235;52.234;5.186;2022-10-16T02:50:07;6.95;;;2.13;;
72301;SDS011;60235;52.234;5.186;2022-10-16T02:52:33;6.03;;;2.13;;
72301;SDS011;60235;52.234;5.186;2022-10-16T02:54:59;6.60;;;2.58;;
72301;SDS011;60235;52.234;5.186;2022-10-16T02:57:25;6.70;;;2.10;;
72301;SDS011;60235;52.234;5.186;2022-10-16T02:59:51;7.70;;;2.35;;
72301;SDS011;60235;52.234;5.186;2022-10-16T03:02:17;7.63;;;2.13;;
72301;SDS011;60235;52.234;5.186;2022-10-16T03:04:43;6.50;;;2.38;;
72301;SDS011;60235;52.234;5.186;2022-10-16T03:07:09;8.82;;;2.10;;
72301;SDS011;60235;52.234;5.186;2022-10-16T03:09:35;5.97;;;1.80;;
72301;SDS011;60235;52.234;5.186;2022-10-16T03:12:01;7.57;;;2.03;;
72301;SDS011;60235;52.234;5.186;2022-10-16T03:14:27;6.70;;;1.92;;
72301;SDS011;60235;52.234;5.186;2022-10-16T03:16:53;7.88;;;2.20;;
72301;SDS011;60235;52.234;5.186;2022-10-16T03:19:19;7.47;;;2.08;;
72301;SDS011;60235;52.234;5.186;2022-10-16T03:21:45;8.45;;;2.17;;
72301;SDS011;60235;52.234;5.186;2022-10-16T03:24:11;7.93;;;2.15;;
72301;SDS011;60235;52.234;5.186;2022-10-16T03:26:37;6.18;;;1.98;;
72301;SDS011;60235;52.234;5.186;2022-10-16T03:29:03;6.32;;;2.00;;
72301;SDS011;60235;52.234;5.186;2022-10-16T03:31:30;8.23;;;2.20;;
72301;SDS011;60235;52.234;5.186;2022-10-16T03:33:56;7.70;;;1.73;;
72301;SDS011;60235;52.234;5.186;2022-10-16T03:36:22;6.43;;;1.85;;
72301;SDS011;60235;52.234;5.186;2022-10-16T03:38:48;6.05;;;2.08;;
72301;SDS011;60235;52.234;5.186;2022-10-16T03:41:14;7.20;;;2.17;;
72301;SDS011;60235;52.234;5.186;2022-10-16T03:43:40;5.68;;;2.00;;
72301;SDS011;60235;52.234;5.186;2022-10-16T03:46:06;9.38;;;1.88;;
72301;SDS011;60235;52.234;5.186;2022-10-16T03:48:32;8.68;;;1.95;;
72301;SDS011;60235;52.234;5.186;2022-10-16T03:50:58;4.15;;;1.40;;
72301;SDS011;60235;52.234;5.186;2022-10-16T03:53:24;5.72;;;1.67;;
72301;SDS011;60235;52.234;5.186;2022-10-16T03:55:50;7.25;;;1.67;;
72301;SDS011;60235;52.234;5.186;2022-10-16T03:58:16;6.82;;;1.80;;
72301;SDS011;60235;52.234;5.186;2022-10-16T04:00:45;8.63;;;2.00;;
72301;SDS011;60235;52.234;5.186;2022-10-16T04:03:12;9.05;;;2.05;;
72301;SDS011;60235;52.234;5.186;2022-10-16T04:05:38;6.75;;;2.22;;
72301;SDS011;60235;52.234;5.186;2022-10-16T04:08:04;6.32;;;2.10;;
72301;SDS011;60235;52.234;5.186;2022-10-16T04:10:30;7.53;;;1.92;;
72301;SDS011;60235;52.234;5.186;2022-10-16T04:12:56;5.28;;;1.75;;
72301;SDS011;60235;52.234;5.186;2022-10-16T04:15:23;6.07;;;2.53;;
72301;SDS011;60235;52.234;5.186;2022-10-16T04:17:49;5.72;;;1.98;;
72301;SDS011;60235;52.234;5.186;2022-10-16T04:20:15;6.20;;;1.80;;
72301;SDS011;60235;52.234;5.186;2022-10-16T04:22:41;7.05;;;2.08;;
72301;SDS011;60235;52.234;5.186;2022-10-16T04:25:07;5.10;;;1.70;;
72301;SDS011;60235;52.234;5.186;2022-10-16T04:27:34;5.63;;;1.77;;
72301;SDS011;60235;52.234;5.186;2022-10-16T04:30:00;5.88;;;1.70;;
72301;SDS011;60235;52.234;5.186;2022-10-16T04:32:26;7.13;;;1.85;;
72301;SDS011;60235;52.234;5.186;2022-10-16T04:34:52;5.20;;;2.00;;
72301;SDS011;60235;52.234;5.186;2022-10-16T04:37:18;7.82;;;2.13;;
72301;SDS011;60235;52.234;5.186;2022-10-16T04:39:44;5.93;;;1.77;;
72301;SDS011;60235;52.234;5.186;2022-10-16T04:42:10;5.65;;;1.80;;
72301;SDS011;60235;52.234;5.186;2022-10-16T04:44:36;6.70;;;2.17;;
72301;SDS011;60235;52.234;5.186;2022-10-16T04:47:02;6.70;;;2.10;;
72301;SDS011;60235;52.234;5.186;2022-10-16T04:49:29;5.88;;;1.95;;
72301;SDS011;60235;52.234;5.186;2022-10-16T04:51:55;6.95;;;1.70;;
72301;SDS011;60235;52.234;5.186;2022-10-16T04:54:21;6.13;;;1.80;;
72301;SDS011;60235;52.234;5.186;2022-10-16T04:56:47;7.55;;;2.00;;
72301;SDS011;60235;52.234;5.186;2022-10-16T04:59:16;4.93;;;1.60;;
72301;SDS011;60235;52.234;5.186;2022-10-16T05:01:42;5.68;;;2.03;;
72301;SDS011;60235;52.234;5.186;2022-10-16T05:04:08;8.45;;;2.20;;
72301;SDS011;60235;52.234;5.186;2022-10-16T05:06:34;5.53;;;1.50;;
72301;SDS011;60235;52.234;5.186;2022-10-16T05:09:00;6.20;;;2.20;;
72301;SDS011;60235;52.234;5.186;2022-10-16T05:11:26;4.75;;;1.90;;
72301;SDS011;60235;52.234;5.186;2022-10-16T05:13:52;6.75;;;1.95;;
72301;SDS011;60235;52.234;5.186;2022-10-16T05:16:18;6.90;;;2.03;;
72301;SDS011;60235;52.234;5.186;2022-10-16T05:18:44;5.82;;;1.88;;
72301;SDS011;60235;52.234;5.186;2022-10-16T05:21:10;6.05;;;1.90;;
72301;SDS011;60235;52.234;5.186;2022-10-16T05:23:36;5.85;;;1.95;;
72301;SDS011;60235;52.234;5.186;2022-10-16T05:26:02;6.28;;;1.80;;
72301;SDS011;60235;52.234;5.186;2022-10-16T05:28:28;7.80;;;2.20;;
72301;SDS011;60235;52.234;5.186;2022-10-16T05:30:55;8.32;;;1.95;;
72301;SDS011;60235;52.234;5.186;2022-10-16T05:33:21;7.25;;;1.90;;
72301;SDS011;60235;52.234;5.186;2022-10-16T05:35:47;9.15;;;2.38;;
72301;SDS011;60235;52.234;5.186;2022-10-16T05:38:14;7.13;;;2.15;;
72301;SDS011;60235;52.234;5.186;2022-10-16T05:40:40;8.63;;;2.08;;
72301;SDS011;60235;52.234;5.186;2022-10-16T05:43:06;9.35;;;2.42;;
72301;SDS011;60235;52.234;5.186;2022-10-16T05:45:33;6.53;;;2.67;;
72301;SDS011;60235;52.234;5.186;2022-10-16T05:47:59;6.03;;;1.92;;
72301;SDS011;60235;52.234;5.186;2022-10-16T05:50:26;7.22;;;2.50;;
72301;SDS011;60235;52.234;5.186;2022-10-16T05:52:52;5.88;;;2.05;;
72301;SDS011;60235;52.234;5.186;2022-10-16T05:55:18;7.88;;;2.05;;
72301;SDS011;60235;52.234;5.186;2022-10-16T05:57:44;7.57;;;2.25;;
72301;SDS011;60235;52.234;5.186;2022-10-16T06:00:10;7.43;;;2.47;;
72301;SDS011;60235;52.234;5.186;2022-10-16T06:02:36;7.22;;;2.20;;
72301;SDS011;60235;52.234;5.186;2022-10-16T06:05:02;9.30;;;3.10;;
72301;SDS011;60235;52.234;5.186;2022-10-16T06:07:28;8.60;;;2.85;;
72301;SDS011;60235;52.234;5.186;2022-10-16T06:09:54;6.35;;;2.20;;
72301;SDS011;60235;52.234;5.186;2022-10-16T06:12:20;6.32;;;2.53;;
72301;SDS011;60235;52.234;5.186;2022-10-16T06:14:46;8.02;;;2.63;;
72301;SDS011;60235;52.234;5.186;2022-10-16T06:17:12;10.45;;;3.08;;
72301;SDS011;60235;52.234;5.186;2022-10-16T06:19:39;7.70;;;3.17;;
72301;SDS011;60235;52.234;5.186;2022-10-16T06:22:05;7.97;;;3.00;;
72301;SDS011;60235;52.234;5.186;2022-10-16T06:24:31;9.38;;;2.92;;
72301;SDS011;60235;52.234;5.186;2022-10-16T06:26:57;8.32;;;2.28;;
72301;SDS011;60235;52.234;5.186;2022-10-16T06:29:23;8.15;;;3.17;;
72301;SDS011;60235;52.234;5.186;2022-10-16T06:31:49;7.75;;;2.75;;
72301;SDS011;60235;52.234;5.186;2022-10-16T06:34:15;10.57;;;2.72;;
72301;SDS011;60235;52.234;5.186;2022-10-16T06:36:41;8.23;;;2.83;;
72301;SDS011;60235;52.234;5.186;2022-10-16T06:39:08;7.82;;;2.63;;
72301;SDS011;60235;52.234;5.186;2022-10-16T06:41:34;9.15;;;3.00;;
72301;SDS011;60235;52.234;5.186;2022-10-16T06:44:00;9.95;;;2.80;;
72301;SDS011;60235;52.234;5.186;2022-10-16T06:46:26;9.32;;;3.22;;
72301;SDS011;60235;52.234;5.186;2022-10-16T06:48:53;9.00;;;2.53;;
72301;SDS011;60235;52.234;5.186;2022-10-16T06:51:20;10.73;;;2.60;;
72301;SDS011;60235;52.234;5.186;2022-10-16T06:53:47;11.70;;;2.90;;
72301;SDS011;60235;52.234;5.186;2022-10-16T06:56:18;6.90;;;2.65;;
72301;SDS011;60235;52.234;5.186;2022-10-16T06:58:44;8.85;;;2.60;;
72301;SDS011;60235;52.234;5.186;2022-10-16T07:01:11;7.38;;;2.78;;
72301;SDS011;60235;52.234;5.186;2022-10-16T07:03:37;9.85;;;2.78;;
72301;SDS011;60235;52.234;5.186;2022-10-16T07:06:04;14.02;;;3.10;;
72301;SDS011;60235;52.234;5.186;2022-10-16T07:08:31;11.55;;;2.53;;
72301;SDS011;60235;52.234;5.186;2022-10-16T07:11:01;6.78;;;2.53;;
72301;SDS011;60235;52.234;5.186;2022-10-16T07:13:28;7.35;;;2.33;;
72301;SDS011;60235;52.234;5.186;2022-10-16T07:15:54;8.02;;;2.53;;
72301;SDS011;60235;52.234;5.186;2022-10-16T07:18:20;9.05;;;2.05;;
72301;SDS011;60235;52.234;5.186;2022-10-16T07:20:51;6.85;;;2.05;;
72301;SDS011;60235;52.234;5.186;2022-10-16T07:23:16;6.05;;;1.92;;
72301;SDS011;60235;52.234;5.186;2022-10-16T07:25:42;9.35;;;1.83;;
72301;SDS011;60235;52.234;5.186;2022-10-16T07:28:08;8.02;;;2.40;;
72301;SDS011;60235;52.234;5.186;2022-10-16T07:30:35;8.45;;;1.80;;
72301;SDS011;60235;52.234;5.186;2022-10-16T07:33:02;10.65;;;1.90;;
72301;SDS011;60235;52.234;5.186;2022-10-16T07:35:28;6.32;;;1.52;;
72301;SDS011;60235;52.234;5.186;2022-10-16T07:37:54;8.02;;;1.90;;
72301;SDS011;60235;52.234;5.186;2022-10-16T07:40:20;7.95;;;2.25;;
72301;SDS011;60235;52.234;5.186;2022-10-16T07:42:46;5.93;;;1.60;;
72301;SDS011;60235;52.234;5.186;2022-10-16T07:45:12;8.80;;;2.13;;
72301;SDS011;60235;52.234;5.186;2022-10-16T07:47:38;10.60;;;1.90;;
72301;SDS011;60235;52.234;5.186;2022-10-16T07:50:04;8.20;;;1.92;;
72301;SDS011;60235;52.234;5.186;2022-10-16T07:52:30;8.68;;;1.60;;
72301;SDS011;60235;52.234;5.186;2022-10-16T07:54:56;6.00;;;1.58;;
72301;SDS011;60235;52.234;5.186;2022-10-16T07:57:22;6.22;;;2.20;;
72301;SDS011;60235;52.234;5.186;2022-10-16T07:59:48;8.57;;;1.55;;
72301;SDS011;60235;52.234;5.186;2022-10-16T08:02:14;5.38;;;1.90;;
72301;SDS011;60235;52.234;5.186;2022-10-16T08:04:40;6.93;;;2.05;;
72301;SDS011;60235;52.234;5.186;2022-10-16T08:07:06;9.43;;;3.00;;
72301;SDS011;60235;52.234;5.186;2022-10-16T08:09:33;11.20;;;2.67;;
72301;SDS011;60235;52.234;5.186;2022-10-16T08:11:59;9.65;;;2.25;;
72301;SDS011;60235;52.234;5.186;2022-10-16T08:14:25;7.28;;;2.10;;
72301;SDS011;60235;52.234;5.186;2022-10-16T08:16:51;9.82;;;2.53;;
72301;SDS011;60235;52.234;5.186;2022-10-16T08:19:18;12.20;;;3.05;;
72301;SDS011;60235;52.234;5.186;2022-10-16T08:21:46;7.78;;;2.40;;
72301;SDS011;60235;52.234;5.186;2022-10-16T08:24:12;10.50;;;2.45;;
72301;SDS011;60235;52.234;5.186;2022-10-16T08:26:38;9.05;;;2.55;;
72301;SDS011;60235;52.234;5.186;2022-10-16T08:29:04;9.52;;;2.92;;
72301;SDS011;60235;52.234;5.186;2022-10-16T08:31:30;8.25;;;2.08;;
72301;SDS011;60235;52.234;5.186;2022-10-16T08:33:56;7.72;;;2.20;;
72301;SDS011;60235;52.234;5.186;2022-10-16T08:36:22;7.75;;;2.15;;
72301;SDS011;60235;52.234;5.186;2022-10-16T08:38:49;7.72;;;2.28;;
72301;SDS011;60235;52.234;5.186;2022-10-16T08:41:18;10.02;;;2.33;;
72301;SDS011;60235;52.234;5.186;2022-10-16T08:48:57;8.10;;;2.10;;
72301;SDS011;60235;52.234;5.186;2022-10-16T08:51:29;7.28;;;1.65;;
72301;SDS011;60235;52.234;5.186;2022-10-16T08:53:57;8.60;;;2.15;;
72301;SDS011;60235;52.234;5.186;2022-10-16T08:56:24;8.55;;;1.70;;
72301;SDS011;60235;52.234;5.186;2022-10-16T08:58:51;7.55;;;1.90;;
72301;SDS011;60235;52.234;5.186;2022-10-16T09:01:18;6.80;;;1.80;;
72301;SDS011;60235;52.234;5.186;2022-10-16T09:03:52;9.30;;;1.90;;
72301;SDS011;60235;52.234;5.186;2022-10-16T09:13:55;10.57;;;2.00;;
72301;SDS011;60235;52.234;5.186;2022-10-16T09:16:28;5.85;;;1.63;;
72301;SDS011;60235;52.234;5.186;2022-10-16T09:21:38;9.43;;;1.77;;
72301;SDS011;60235;52.234;5.186;2022-10-16T09:24:16;7.60;;;1.55;;
72301;SDS011;60235;52.234;5.186;2022-10-16T09:26:43;16.25;;;2.33;;
72301;SDS011;60235;52.234;5.186;2022-10-16T09:29:13;9.93;;;2.30;;
72301;SDS011;60235;52.234;5.186;2022-10-16T09:31:40;11.00;;;2.30;;
72301;SDS011;60235;52.234;5.186;2022-10-16T09:34:08;8.45;;;1.77;;
72301;SDS011;60235;52.234;5.186;2022-10-16T09:36:41;12.02;;;2.10;;
72301;SDS011;60235;52.234;5.186;2022-10-16T09:39:09;13.52;;;2.10;;
72301;SDS011;60235;52.234;5.186;2022-10-16T09:41:40;9.13;;;1.80;;
72301;SDS011;60235;52.234;5.186;2022-10-16T09:46:45;9.80;;;2.25;;
72301;SDS011;60235;52.234;5.186;2022-10-16T09:49:24;6.75;;;1.95;;
72301;SDS011;60235;52.234;5.186;2022-10-16T09:51:51;12.35;;;2.10;;
72301;SDS011;60235;52.234;5.186;2022-10-16T09:54:28;10.70;;;2.00;;
72301;SDS011;60235;52.234;5.186;2022-10-16T09:57:03;11.20;;;1.75;;
72301;SDS011;60235;52.234;5.186;2022-10-16T10:01:56;11.73;;;2.40;;
72301;SDS011;60235;52.234;5.186;2022-10-16T10:04:25;9.63;;;1.90;;
72301;SDS011;60235;52.234;5.186;2022-10-16T10:06:53;13.73;;;1.67;;
72301;SDS011;60235;52.234;5.186;2022-10-16T10:09:24;15.45;;;3.15;;
72301;SDS011;60235;52.234;5.186;2022-10-16T10:16:46;9.57;;;2.00;;
72301;SDS011;60235;52.234;5.186;2022-10-16T10:19:16;8.77;;;1.98;;
72301;SDS011;60235;52.234;5.186;2022-10-16T10:21:43;14.57;;;2.60;;
72301;SDS011;60235;52.234;5.186;2022-10-16T10:24:15;10.93;;;1.90;;
72301;SDS011;60235;52.234;5.186;2022-10-16T10:26:45;11.30;;;2.10;;
72301;SDS011;60235;52.234;5.186;2022-10-16T10:29:18;11.98;;;2.03;;
72301;SDS011;60235;52.234;5.186;2022-10-16T10:31:51;11.32;;;2.30;;
72301;SDS011;60235;52.234;5.186;2022-10-16T10:36:50;12.25;;;2.45;;
72301;SDS011;60235;52.234;5.186;2022-10-16T10:39:20;16.08;;;2.08;;
72301;SDS011;60235;52.234;5.186;2022-10-16T10:44:28;13.43;;;1.85;;
72301;SDS011;60235;52.234;5.186;2022-10-16T10:54:32;13.15;;;1.90;;
72301;SDS011;60235;52.234;5.186;2022-10-16T10:57:09;12.77;;;1.95;;
72301;SDS011;60235;52.234;5.186;2022-10-16T10:59:38;10.77;;;2.75;;
72301;SDS011;60235;52.234;5.186;2022-10-16T11:02:11;12.73;;;2.00;;
72301;SDS011;60235;52.234;5.186;2022-10-16T11:07:15;14.32;;;2.13;;
72301;SDS011;60235;52.234;5.186;2022-10-16T11:09:44;11.93;;;1.90;;
72301;SDS011;60235;52.234;5.186;2022-10-16T11:12:14;12.65;;;2.38;;
72301;SDS011;60235;52.234;5.186;2022-10-16T11:14:44;8.55;;;2.10;;
72301;SDS011;60235;52.234;5.186;2022-10-16T11:17:32;8.65;;;1.52;;
72301;SDS011;60235;52.234;5.186;2022-10-16T11:20:13;13.30;;;2.08;;
72301;SDS011;60235;52.234;5.186;2022-10-16T11:22:45;11.02;;;2.00;;
72301;SDS011;60235;52.234;5.186;2022-10-16T11:25:31;7.07;;;1.63;;
72301;SDS011;60235;52.234;5.186;2022-10-16T11:30:27;7.47;;;1.48;;
72301;SDS011;60235;52.234;5.186;2022-10-16T11:33:00;8.93;;;1.50;;
72301;SDS011;60235;52.234;5.186;2022-10-16T11:35:53;10.10;;;2.33;;
72301;SDS011;60235;52.234;5.186;2022-10-16T11:40:45;16.92;;;2.03;;
72301;SDS011;60235;52.234;5.186;2022-10-16T11:45:42;11.35;;;1.83;;
72301;SDS011;60235;52.234;5.186;2022-10-16T11:55:41;9.60;;;1.73;;
72301;SDS011;60235;52.234;5.186;2022-10-16T11:58:09;9.02;;;1.40;;
72301;SDS011;60235;52.234;5.186;2022-10-16T12:03:15;13.88;;;1.60;;
72301;SDS011;60235;52.234;5.186;2022-10-16T12:08:18;12.45;;;1.60;;
72301;SDS011;60235;52.234;5.186;2022-10-16T12:10:45;10.20;;;1.92;;
72301;SDS011;60235;52.234;5.186;2022-10-16T12:18:38;7.22;;;1.35;;
72301;SDS011;60235;52.234;5.186;2022-10-16T12:21:04;8.68;;;1.20;;
72301;SDS011;60235;52.234;5.186;2022-10-16T12:23:32;11.05;;;1.58;;
72301;SDS011;60235;52.234;5.186;2022-10-16T12:25:59;6.57;;;1.48;;
72301;SDS011;60235;52.234;5.186;2022-10-16T12:28:28;9.80;;;1.75;;
72301;SDS011;60235;52.234;5.186;2022-10-16T12:33:27;7.50;;;1.23;;
72301;SDS011;60235;52.234;5.186;2022-10-16T12:35:53;11.07;;;1.50;;
72301;SDS011;60235;52.234;5.186;2022-10-16T12:38:26;11.57;;;1.92;;
72301;SDS011;60235;52.234;5.186;2022-10-16T12:41:00;10.15;;;1.73;;
72301;SDS011;60235;52.234;5.186;2022-10-16T12:48:33;8.85;;;1.73;;
72301;SDS011;60235;52.234;5.186;2022-10-16T12:51:09;13.45;;;1.85;;
72301;SDS011;60235;52.234;5.186;2022-10-16T12:53:35;10.40;;;1.67;;
72301;SDS011;60235;52.234;5.186;2022-10-16T12:56:19;9.73;;;1.80;;
72301;SDS011;60235;52.234;5.186;2022-10-16T13:06:44;11.50;;;2.10;;
72301;SDS011;60235;52.234;5.186;2022-10-16T13:17:05;11.38;;;1.52;;
72301;SDS011;60235;52.234;5.186;2022-10-16T13:19:42;8.82;;;1.58;;
72301;SDS011;60235;52.234;5.186;2022-10-16T13:22:28;9.82;;;1.25;;
72301;SDS011;60235;52.234;5.186;2022-10-16T13:30:02;9.13;;;1.80;;
72301;SDS011;60235;52.234;5.186;2022-10-16T13:32:33;12.45;;;1.85;;
72301;SDS011;60235;52.234;5.186;2022-10-16T13:34:59;10.45;;;1.58;;
72301;SDS011;60235;52.234;5.186;2022-10-16T13:37:26;11.57;;;1.60;;
72301;SDS011;60235;52.234;5.186;2022-10-16T13:40:02;10.50;;;1.58;;
72301;SDS011;60235;52.234;5.186;2022-10-16T13:42:33;9.07;;;1.40;;
72301;SDS011;60235;52.234;5.186;2022-10-16T13:44:59;9.18;;;1.65;;
72301;SDS011;60235;52.234;5.186;2022-10-16T13:47:26;12.98;;;1.63;;
72301;SDS011;60235;52.234;5.186;2022-10-16T13:52:50;11.00;;;1.60;;
72301;SDS011;60235;52.234;5.186;2022-10-16T13:55:17;11.30;;;1.63;;
72301;SDS011;60235;52.234;5.186;2022-10-16T13:57:44;11.18;;;1.40;;
72301;SDS011;60235;52.234;5.186;2022-10-16T14:00:17;9.15;;;1.33;;
72301;SDS011;60235;52.234;5.186;2022-10-16T14:02:43;10.50;;;1.65;;
72301;SDS011;60235;52.234;5.186;2022-10-16T14:05:09;9.43;;;1.52;;
72301;SDS011;60235;52.234;5.186;2022-10-16T14:07:35;13.35;;;1.58;;
72301;SDS011;60235;52.234;5.186;2022-10-16T14:10:05;10.02;;;2.20;;
72301;SDS011;60235;52.234;5.186;2022-10-16T14:12:33;11.93;;;2.78;;
72301;SDS011;60235;52.234;5.186;2022-10-16T14:14:59;8.10;;;1.80;;
72301;SDS011;60235;52.234;5.186;2022-10-16T14:17:29;10.60;;;1.70;;
72301;SDS011;60235;52.234;5.186;2022-10-16T14:19:57;9.40;;;1.38;;
72301;SDS011;60235;52.234;5.186;2022-10-16T14:22:30;10.68;;;1.55;;
72301;SDS011;60235;52.234;5.186;2022-10-16T14:24:57;12.50;;;1.80;;
72301;SDS011;60235;52.234;5.186;2022-10-16T14:27:26;11.93;;;1.50;;
72301;SDS011;60235;52.234;5.186;2022-10-16T14:30:36;13.98;;;2.00;;
72301;SDS011;60235;52.234;5.186;2022-10-16T14:32:52;9.10;;;1.75;;
72301;SDS011;60235;52.234;5.186;2022-10-16T14:35:35;12.18;;;1.60;;
72301;SDS011;60235;52.234;5.186;2022-10-16T14:38:02;12.98;;;2.05;;
72301;SDS011;60235;52.234;5.186;2022-10-16T14:40:38;12.52;;;1.80;;
72301;SDS011;60235;52.234;5.186;2022-10-16T14:43:04;10.68;;;1.50;;
72301;SDS011;60235;52.234;5.186;2022-10-16T14:45:31;18.63;;;1.80;;
72301;SDS011;60235;52.234;5.186;2022-10-16T14:47:58;8.00;;;1.45;;
72301;SDS011;60235;52.234;5.186;2022-10-16T14:50:26;10.27;;;1.60;;
72301;SDS011;60235;52.234;5.186;2022-10-16T14:52:52;8.50;;;1.63;;
72301;SDS011;60235;52.234;5.186;2022-10-16T14:55:18;10.95;;;1.70;;
72301;SDS011;60235;52.234;5.186;2022-10-16T14:57:44;12.45;;;1.67;;
72301;SDS011;60235;52.234;5.186;2022-10-16T15:00:21;11.93;;;1.90;;
72301;SDS011;60235;52.234;5.186;2022-10-16T15:02:48;10.85;;;1.90;;
72301;SDS011;60235;52.234;5.186;2022-10-16T15:05:18;10.50;;;1.70;;
72301;SDS011;60235;52.234;5.186;2022-10-16T15:07:45;11.55;;;2.63;;
72301;SDS011;60235;52.234;5.186;2022-10-16T15:10:13;9.02;;;1.83;;
72301;SDS011;60235;52.234;5.186;2022-10-16T15:12:39;11.27;;;1.88;;
72301;SDS011;60235;52.234;5.186;2022-10-16T15:15:51;10.60;;;2.15;;
72301;SDS011;60235;52.234;5.186;2022-10-16T15:17:55;14.90;;;2.42;;
72301;SDS011;60235;52.234;5.186;2022-10-16T15:20:23;11.25;;;2.05;;
72301;SDS011;60235;52.234;5.186;2022-10-16T15:22:49;7.72;;;1.77;;
72301;SDS011;60235;52.234;5.186;2022-10-16T15:25:29;10.13;;;1.73;;
72301;SDS011;60235;52.234;5.186;2022-10-16T15:27:56;7.72;;;1.65;;
72301;SDS011;60235;52.234;5.186;2022-10-16T15:30:23;14.98;;;2.40;;
72301;SDS011;60235;52.234;5.186;2022-10-16T15:32:48;11.82;;;1.85;;
72301;SDS011;60235;52.234;5.186;2022-10-16T15:35:14;13.43;;;2.05;;
72301;SDS011;60235;52.234;5.186;2022-10-16T15:37:40;11.95;;;2.53;;
72301;SDS011;60235;52.234;5.186;2022-10-16T15:40:07;11.43;;;2.00;;
72301;SDS011;60235;52.234;5.186;2022-10-16T15:42:33;11.48;;;1.92;;
72301;SDS011;60235;52.234;5.186;2022-10-16T15:44:59;11.82;;;1.92;;
72301;SDS011;60235;52.234;5.186;2022-10-16T15:47:26;10.32;;;2.15;;
72301;SDS011;60235;52.234;5.186;2022-10-16T15:49:52;10.02;;;2.20;;
72301;SDS011;60235;52.234;5.186;2022-10-16T15:52:18;10.90;;;1.85;;
72301;SDS011;60235;52.234;5.186;2022-10-16T15:54:44;13.57;;;1.98;;
72301;SDS011;60235;52.234;5.186;2022-10-16T15:57:10;10.45;;;2.33;;
72301;SDS011;60235;52.234;5.186;2022-10-16T15:59:35;11.32;;;1.98;;
72301;SDS011;60235;52.234;5.186;2022-10-16T16:02:02;11.65;;;2.35;;
72301;SDS011;60235;52.234;5.186;2022-10-16T16:04:30;14.00;;;2.33;;
72301;SDS011;60235;52.234;5.186;2022-10-16T16:06:57;11.55;;;2.65;;
72301;SDS011;60235;52.234;5.186;2022-10-16T16:09:23;16.63;;;2.55;;
72301;SDS011;60235;52.234;5.186;2022-10-16T16:11:49;12.13;;;2.42;;
72301;SDS011;60235;52.234;5.186;2022-10-16T16:14:17;15.82;;;2.20;;
72301;SDS011;60235;52.234;5.186;2022-10-16T16:16:43;17.98;;;4.63;;
72301;SDS011;60235;52.234;5.186;2022-10-16T16:19:09;16.90;;;5.18;;
72301;SDS011;60235;52.234;5.186;2022-10-16T16:21:35;19.85;;;6.25;;
72301;SDS011;60235;52.234;5.186;2022-10-16T16:24:01;18.05;;;6.43;;
72301;SDS011;60235;52.234;5.186;2022-10-16T16:26:33;17.52;;;6.38;;
72301;SDS011;60235;52.234;5.186;2022-10-16T16:29:01;24.05;;;7.55;;
72301;SDS011;60235;52.234;5.186;2022-10-16T16:31:28;21.02;;;7.93;;
72301;SDS011;60235;52.234;5.186;2022-10-16T16:33:54;25.85;;;8.50;;
72301;SDS011;60235;52.234;5.186;2022-10-16T16:36:21;26.15;;;8.70;;
72301;SDS011;60235;52.234;5.186;2022-10-16T16:38:48;26.58;;;9.93;;
72301;SDS011;60235;52.234;5.186;2022-10-16T16:41:18;23.02;;;9.35;;
72301;SDS011;60235;52.234;5.186;2022-10-16T16:43:45;28.25;;;12.68;;